La rose des vents
Donnes mto: Semaine 21/01/08 - 27/01/08 (S 4)
Date Horaire Temp. E. Hum. E. P.atmo. Pluie Vent 1mn Direction Ensoleilleme Ev.Tr. Solaire P. de rose Temp au vent Rafales
21/01/2008 00:00 9,6 C 85 % 1027,2 hPa 0,0 l/m 4,5 km/h (1 Bft) O-NO 0,00 h 0,025 mm 0 W/m 7,2 C 9,4 C 6,0 km/h (2 Bft)
21/01/2008 01:00 9,3 C 85 % 1026,4 hPa 0,0 l/m 5,0 km/h (1 Bft) O-NO 0,00 h 0,025 mm 0 W/m 6,9 C 8,9 C 6,7 km/h (2 Bft)
21/01/2008 02:00 9,1 C 85 % 1026,2 hPa 0,0 l/m 5,2 km/h (1 Bft) O-NO 0,00 h 0,025 mm 0 W/m 6,8 C 8,7 C 7,0 km/h (2 Bft)
21/01/2008 03:00 8,9 C 83 % 1025,9 hPa 0,0 l/m 5,5 km/h (1 Bft) O-NO 0,00 h 0,025 mm 0 W/m 6,2 C 8,4 C 7,2 km/h (2 Bft)
21/01/2008 04:00 8,7 C 84 % 1025,5 hPa 0,0 l/m 3,2 km/h (1 Bft) O-NO 0,00 h 0,025 mm 0 W/m 6,1 C 8,4 C 4,5 km/h (1 Bft)
21/01/2008 05:00 8,5 C 86 % 1025,4 hPa 0,0 l/m 2,6 km/h (1 Bft) O-NO 0,00 h 0,025 mm 0 W/m 6,2 C 8,4 C 3,6 km/h (1 Bft)
21/01/2008 06:00 8,2 C 86 % 1025,4 hPa 0,0 l/m 3,1 km/h (1 Bft) O 0,00 h 0,025 mm 0 W/m 6,0 C 8,0 C 4,8 km/h (1 Bft)
21/01/2008 07:00 7,9 C 85 % 1025,4 hPa 0,0 l/m 2,2 km/h (1 Bft) O 0,00 h 0,025 mm 0 W/m 5,6 C 7,8 C 3,5 km/h (1 Bft)
21/01/2008 08:00 7,7 C 85 % 1025,3 hPa 0,0 l/m 4,7 km/h (1 Bft) NO 0,00 h 0,000 mm 13 W/m 5,3 C 7,2 C 6,6 km/h (2 Bft)
21/01/2008 09:00 8,1 C 86 % 1025,3 hPa 0,0 l/m 4,2 km/h (1 Bft) S-SO 0,00 h 0,025 mm 54 W/m 5,9 C 7,7 C 5,8 km/h (2 Bft)
21/01/2008 10:00 8,5 C 85 % 1025,3 hPa 0,0 l/m 1,4 km/h (1 Bft) O-NO 0,00 h 0,025 mm 86 W/m 6,1 C 8,5 C 2,5 km/h (1 Bft)
21/01/2008 11:00 9,3 C 82 % 1025,2 hPa 0,0 l/m 1,7 km/h (1 Bft) O 0,27 h 0,051 mm 198 W/m 6,4 C 9,3 C 3,4 km/h (1 Bft)
21/01/2008 12:00 10,2 C 75 % 1024,3 hPa 0,0 l/m 1,6 km/h (1 Bft) NO 0,73 h 0,102 mm 264 W/m 5,9 C 10,1 C 3,1 km/h (1 Bft)
21/01/2008 13:00 10,5 C 74 % 1023,3 hPa 0,0 l/m 3,9 km/h (1 Bft) SO 0,17 h 0,127 mm 175 W/m 6,0 C 10,5 C 5,7 km/h (1 Bft)
21/01/2008 14:00 11,0 C 74 % 1022,4 hPa 0,0 l/m 1,0 km/h (0 Bft) SO 0,63 h 0,102 mm 294 W/m 6,4 C 11,0 C 2,4 km/h (1 Bft)
21/01/2008 15:00 11,9 C 71 % 1021,7 hPa 0,0 l/m 5,6 km/h (1 Bft) E-NE 1,00 h 0,152 mm 250 W/m 6,9 C 11,9 C 7,8 km/h (2 Bft)
21/01/2008 16:00 11,2 C 75 % 1021,6 hPa 0,0 l/m 5,7 km/h (1 Bft) E-NE 1,00 h 0,152 mm 106 W/m 6,8 C 11,2 C 7,8 km/h (2 Bft)
21/01/2008 17:00 9,1 C 80 % 1021,4 hPa 0,0 l/m 3,4 km/h (1 Bft) N-NE 0,28 h 0,076 mm 16 W/m 5,8 C 9,0 C 5,1 km/h (1 Bft)
21/01/2008 18:00 7,4 C 83 % 1021,1 hPa 0,0 l/m 2,6 km/h (1 Bft) N-NE 0,00 h 0,025 mm 0 W/m 4,7 C 7,4 C 4,6 km/h (1 Bft)
21/01/2008 19:00 7,6 C 86 % 1020,8 hPa 0,0 l/m 2,8 km/h (1 Bft) N 0,00 h 0,025 mm 0 W/m 5,4 C 7,5 C 5,1 km/h (1 Bft)
21/01/2008 20:00 8,3 C 87 % 1020,3 hPa 0,0 l/m 3,1 km/h (1 Bft) N 0,00 h 0,025 mm 0 W/m 6,2 C 8,2 C 6,0 km/h (2 Bft)
21/01/2008 21:00 7,9 C 85 % 1019,9 hPa 0,0 l/m 2,3 km/h (1 Bft) N 0,00 h 0,025 mm 0 W/m 5,6 C 7,9 C 4,4 km/h (1 Bft)
21/01/2008 22:00 7,4 C 86 % 1019,2 hPa 0,0 l/m 4,5 km/h (1 Bft) N 0,00 h 0,025 mm 0 W/m 5,2 C 6,9 C 7,0 km/h (2 Bft)
21/01/2008 23:00 6,8 C 87 % 1018,4 hPa 0,0 l/m 2,4 km/h (1 Bft) N 0,00 h 0,025 mm 0 W/m 4,8 C 6,8 C 4,4 km/h (1 Bft)
22/01/2008 00:00 6,4 C 88 % 1017,6 hPa 0,0 l/m 3,4 km/h (1 Bft) NO 0,00 h 0,025 mm 0 W/m 4,6 C 6,1 C 5,4 km/h (1 Bft)
22/01/2008 01:00 6,2 C 89 % 1016,9 hPa 0,0 l/m 2,9 km/h (1 Bft) O-NO 0,00 h 0,025 mm 0 W/m 4,5 C 6,0 C 4,9 km/h (1 Bft)
22/01/2008 02:00 6,2 C 90 % 1015,8 hPa 0,0 l/m 3,9 km/h (1 Bft) O-NO 0,00 h 0,025 mm 0 W/m 4,7 C 5,9 C 5,6 km/h (1 Bft)
22/01/2008 03:00 6,3 C 90 % 1014,7 hPa 0,0 l/m 3,4 km/h (1 Bft) O-NO 0,00 h 0,025 mm 0 W/m 4,8 C 6,0 C 5,0 km/h (1 Bft)
22/01/2008 04:00 6,4 C 90 % 1013,8 hPa 0,0 l/m 2,9 km/h (1 Bft) O-NO 0,00 h 0,025 mm 0 W/m 4,9 C 6,1 C 4,5 km/h (1 Bft)
22/01/2008 05:00 6,2 C 91 % 1012,8 hPa 0,0 l/m 2,2 km/h (1 Bft) NO 0,00 h 0,000 mm 0 W/m 4,8 C 6,0 C 3,8 km/h (1 Bft)
22/01/2008 06:00 6,0 C 91 % 1011,9 hPa 0,0 l/m 4,4 km/h (1 Bft) NO 0,00 h 0,000 mm 0 W/m 4,7 C 5,3 C 6,6 km/h (2 Bft)
22/01/2008 07:00 5,7 C 92 % 1011,1 hPa 0,0 l/m 7,6 km/h (2 Bft) O 0,00 h 0,025 mm 0 W/m 4,6 C 4,2 C 10,8 km/h (2 Bft)
22/01/2008 08:00 7,6 C 89 % 1010,4 hPa 0,0 l/m 9,8 km/h (2 Bft) E 0,15 h 0,000 mm 28 W/m 5,9 C 6,0 C 15,6 km/h (3 Bft)
22/01/2008 09:00 9,5 C 80 % 1011,0 hPa 0,0 l/m 6,5 km/h (2 Bft) E 1,00 h 0,025 mm 185 W/m 6,3 C 9,2 C 9,8 km/h (2 Bft)
22/01/2008 10:00 12,6 C 71 % 1010,9 hPa 0,0 l/m 6,1 km/h (2 Bft) S 1,00 h 0,102 mm 327 W/m 7,5 C 12,6 C 8,5 km/h (2 Bft)
22/01/2008 11:00 17,2 C 43 % 1010,5 hPa 0,0 l/m 7,8 km/h (2 Bft) O 1,00 h 0,178 mm 424 W/m 4,3 C 17,2 C 11,9 km/h (2 Bft)
22/01/2008 12:00 18,1 C 36 % 1010,3 hPa 0,0 l/m 18,9 km/h (3 Bft) SO 1,00 h 0,305 mm 459 W/m 3,0 C 18,1 C 26,0 km/h (4 Bft)
22/01/2008 13:00 18,1 C 34 % 1009,4 hPa 0,0 l/m 18,5 km/h (3 Bft) O 1,00 h 0,432 mm 433 W/m 2,0 C 18,1 C 25,5 km/h (4 Bft)
22/01/2008 14:00 15,9 C 59 % 1009,0 hPa 0,0 l/m 8,4 km/h (2 Bft) E 1,00 h 0,406 mm 358 W/m 7,7 C 15,9 C 11,9 km/h (2 Bft)
22/01/2008 15:00 14,0 C 70 % 1008,8 hPa 0,0 l/m 8,3 km/h (2 Bft) E 1,00 h 0,229 mm 243 W/m 8,7 C 14,0 C 11,6 km/h (2 Bft)
22/01/2008 16:00 12,5 C 76 % 1009,5 hPa 0,0 l/m 4,7 km/h (1 Bft) E-NE 0,63 h 0,152 mm 97 W/m 8,4 C 12,5 C 6,8 km/h (2 Bft)
22/01/2008 17:00 11,5 C 76 % 1010,8 hPa 0,0 l/m 4,1 km/h (1 Bft) SE 0,05 h 0,076 mm 13 W/m 7,4 C 11,5 C 6,0 km/h (2 Bft)
22/01/2008 18:00 10,0 C 85 % 1012,2 hPa 0,0 l/m 3,7 km/h (1 Bft) S-SE 0,00 h 0,025 mm 0 W/m 7,6 C 9,8 C 5,3 km/h (1 Bft)
22/01/2008 19:00 9,5 C 89 % 1013,4 hPa 0,0 l/m 4,2 km/h (1 Bft) NO 0,00 h 0,025 mm 0 W/m 7,8 C 9,3 C 5,4 km/h (1 Bft)
22/01/2008 20:00 9,4 C 84 % 1014,5 hPa 0,0 l/m 7,5 km/h (2 Bft) O 0,00 h 0,025 mm 0 W/m 6,9 C 8,5 C 10,4 km/h (2 Bft)
22/01/2008 21:00 9,9 C 57 % 1015,1 hPa 0,0 l/m 6,2 km/h (2 Bft) O-NO 0,00 h 0,025 mm 0 W/m 1,8 C 9,6 C 9,0 km/h (2 Bft)
22/01/2008 22:00 9,6 C 48 % 1015,9 hPa 0,0 l/m 5,8 km/h (2 Bft) O-NO 0,00 h 0,051 mm 0 W/m -1,0 C 8,8 C 8,2 km/h (2 Bft)
22/01/2008 23:00 9,7 C 45 % 1016,3 hPa 0,0 l/m 2,7 km/h (1 Bft) N-NO 0,00 h 0,051 mm 0 W/m -1,8 C 9,6 C 4,2 km/h (1 Bft)
23/01/2008 00:00 9,9 C 43 % 1017,2 hPa 0,0 l/m 5,4 km/h (1 Bft) O 0,00 h 0,051 mm 0 W/m -1,9 C 9,7 C 6,7 km/h (2 Bft)
23/01/2008 01:00 10,0 C 44 % 1018,1 hPa 0,0 l/m 4,7 km/h (1 Bft) O 0,00 h 0,076 mm 0 W/m -1,6 C 9,9 C 6,1 km/h (2 Bft)
23/01/2008 02:00 9,2 C 46 % 1019,0 hPa 0,0 l/m 3,1 km/h (1 Bft) NO 0,00 h 0,051 mm 0 W/m -1,8 C 9,1 C 4,4 km/h (1 Bft)
23/01/2008 03:00 8,4 C 48 % 1019,8 hPa 0,0 l/m 3,4 km/h (1 Bft) NO 0,00 h 0,051 mm 0 W/m -2,0 C 8,1 C 5,0 km/h (1 Bft)
23/01/2008 04:00 8,0 C 50 % 1020,6 hPa 0,0 l/m 3,9 km/h (1 Bft) O-NO 0,00 h 0,051 mm 0 W/m -1,7 C 7,7 C 5,5 km/h (1 Bft)
23/01/2008 05:00 8,0 C 51 % 1021,3 hPa 0,0 l/m 5,0 km/h (1 Bft) NO 0,00 h 0,051 mm 0 W/m -1,4 C 7,5 C 7,2 km/h (2 Bft)
23/01/2008 06:00 7,9 C 56 % 1021,8 hPa 0,0 l/m 4,9 km/h (1 Bft) NO 0,00 h 0,051 mm 0 W/m -0,2 C 7,4 C 6,9 km/h (2 Bft)
23/01/2008 07:00 8,1 C 58 % 1022,5 hPa 0,0 l/m 5,5 km/h (1 Bft) NO 0,00 h 0,051 mm 7 W/m 0,3 C 7,5 C 7,9 km/h (2 Bft)
23/01/2008 08:00 9,0 C 53 % 1023,5 hPa 0,0 l/m 5,1 km/h (1 Bft) O-NO 0,87 h 0,025 mm 64 W/m -0,1 C 8,5 C 7,5 km/h (2 Bft)
23/01/2008 09:00 9,6 C 54 % 1024,7 hPa 0,0 l/m 2,8 km/h (1 Bft) S-SE 1,00 h 0,051 mm 185 W/m 0,7 C 9,4 C 4,5 km/h (1 Bft)
23/01/2008 10:00 11,9 C 52 % 1025,9 hPa 0,0 l/m 1,9 km/h (1 Bft) N 1,00 h 0,102 mm 309 W/m 2,2 C 11,9 C 3,8 km/h (1 Bft)
23/01/2008 11:00 13,5 C 44 % 1026,8 hPa 0,0 l/m 5,2 km/h (1 Bft) E 1,00 h 0,178 mm 403 W/m 1,4 C 13,5 C 8,3 km/h (2 Bft)
23/01/2008 12:00 13,4 C 37 % 1026,9 hPa 0,0 l/m 6,9 km/h (2 Bft) E 1,00 h 0,254 mm 442 W/m -0,9 C 13,4 C 10,7 km/h (2 Bft)
23/01/2008 13:00 13,6 C 31 % 1026,9 hPa 0,0 l/m 4,6 km/h (1 Bft) SE 1,00 h 0,279 mm 427 W/m -3,1 C 13,6 C 7,7 km/h (2 Bft)
23/01/2008 14:00 13,5 C 36 % 1026,8 hPa 0,0 l/m 4,2 km/h (1 Bft) SE 1,00 h 0,254 mm 356 W/m -1,5 C 13,5 C 7,2 km/h (2 Bft)
23/01/2008 15:00 12,7 C 46 % 1026,7 hPa 0,0 l/m 2,9 km/h (1 Bft) SE 1,00 h 0,229 mm 240 W/m 1,5 C 12,7 C 5,6 km/h (1 Bft)
23/01/2008 16:00 11,7 C 55 % 1026,8 hPa 0,0 l/m 1,8 km/h (1 Bft) SE 0,90 h 0,152 mm 103 W/m 3,1 C 11,7 C 3,8 km/h (1 Bft)
23/01/2008 17:00 10,0 C 61 % 1027,2 hPa 0,0 l/m 0,7 km/h (0 Bft) SE 0,07 h 0,076 mm 14 W/m 2,7 C 10,0 C 1,3 km/h (1 Bft)
23/01/2008 18:00 8,5 C 64 % 1027,5 hPa 0,0 l/m 4,0 km/h (1 Bft) O-NO 0,00 h 0,025 mm 0 W/m 2,2 C 8,3 C 5,7 km/h (1 Bft)
23/01/2008 19:00 7,5 C 66 % 1028,2 hPa 0,0 l/m 6,3 km/h (2 Bft) O-NO 0,00 h 0,025 mm 0 W/m 1,6 C 6,6 C 9,0 km/h (2 Bft)
23/01/2008 20:00 7,3 C 63 % 1028,6 hPa 0,0 l/m 7,5 km/h (2 Bft) O-NO 0,00 h 0,051 mm 0 W/m 0,7 C 6,0 C 10,7 km/h (2 Bft)
23/01/2008 21:00 6,5 C 64 % 1028,9 hPa 0,0 l/m 4,6 km/h (1 Bft) NO 0,00 h 0,051 mm 0 W/m 0,1 C 5,9 C 6,9 km/h (2 Bft)
23/01/2008 22:00 6,8 C 59 % 1028,8 hPa 0,0 l/m 5,9 km/h (2 Bft) O-NO 0,00 h 0,025 mm 0 W/m -0,6 C 5,9 C 8,7 km/h (2 Bft)
23/01/2008 23:00 6,6 C 57 % 1028,9 hPa 0,0 l/m 5,0 km/h (1 Bft) O-NO 0,00 h 0,051 mm 0 W/m -1,3 C 6,0 C 6,9 km/h (2 Bft)
24/01/2008 00:00 6,4 C 58 % 1029,1 hPa 0,0 l/m 5,8 km/h (2 Bft) O-NO 0,00 h 0,051 mm 0 W/m -1,2 C 5,4 C 9,1 km/h (2 Bft)
24/01/2008 01:00 5,6 C 62 % 1029,1 hPa 0,0 l/m 5,9 km/h (2 Bft) O-NO 0,00 h 0,051 mm 0 W/m -1,2 C 4,5 C 8,4 km/h (2 Bft)
24/01/2008 02:00 5,6 C 62 % 1029,2 hPa 0,0 l/m 3,5 km/h (1 Bft) N-NO 0,00 h 0,051 mm 0 W/m -1,1 C 5,0 C 5,7 km/h (1 Bft)
24/01/2008 03:00 6,1 C 60 % 1028,9 hPa 0,0 l/m 5,1 km/h (1 Bft) NO 0,00 h 0,025 mm 0 W/m -1,1 C 5,3 C 7,1 km/h (2 Bft)
24/01/2008 04:00 6,4 C 57 % 1028,7 hPa 0,0 l/m 6,6 km/h (2 Bft) O 0,00 h 0,051 mm 0 W/m -1,4 C 5,2 C 9,5 km/h (2 Bft)
24/01/2008 05:00 6,2 C 57 % 1028,8 hPa 0,0 l/m 10,3 km/h (2 Bft) O 0,00 h 0,051 mm 0 W/m -1,6 C 4,0 C 13,7 km/h (3 Bft)
24/01/2008 06:00 5,9 C 58 % 1028,9 hPa 0,0 l/m 10,4 km/h (2 Bft) O 0,00 h 0,051 mm 0 W/m -1,8 C 3,7 C 14,1 km/h (3 Bft)
24/01/2008 07:00 5,5 C 58 % 1028,9 hPa 0,0 l/m 10,2 km/h (2 Bft) O 0,00 h 0,051 mm 6 W/m -2,1 C 3,2 C 13,7 km/h (3 Bft)
24/01/2008 08:00 6,2 C 56 % 1029,0 hPa 0,0 l/m 9,5 km/h (2 Bft) O-NO 0,87 h 0,051 mm 57 W/m -2,0 C 4,2 C 12,4 km/h (3 Bft)
24/01/2008 09:00 8,9 C 48 % 1029,3 hPa 0,0 l/m 5,2 km/h (1 Bft) O-NO 1,00 h 0,076 mm 191 W/m -1,4 C 8,2 C 7,2 km/h (2 Bft)
24/01/2008 10:00 11,6 C 46 % 1029,2 hPa 0,0 l/m 5,1 km/h (1 Bft) SO 1,00 h 0,127 mm 314 W/m 0,3 C 11,6 C 8,3 km/h (2 Bft)
24/01/2008 11:00 12,6 C 43 % 1029,4 hPa 0,0 l/m 8,1 km/h (2 Bft) S-SO 1,00 h 0,178 mm 403 W/m 0,5 C 12,6 C 11,8 km/h (2 Bft)
24/01/2008 12:00 13,3 C 41 % 1029,0 hPa 0,0 l/m 5,9 km/h (2 Bft) SO 1,00 h 0,254 mm 441 W/m 0,2 C 13,3 C 9,0 km/h (2 Bft)
24/01/2008 13:00 14,1 C 48 % 1028,3 hPa 0,0 l/m 4,2 km/h (1 Bft) E-NE 1,00 h 0,279 mm 422 W/m 3,1 C 14,1 C 6,4 km/h (2 Bft)
24/01/2008 14:00 14,2 C 49 % 1027,9 hPa 0,0 l/m 3,9 km/h (1 Bft) E-NE 1,00 h 0,254 mm 353 W/m 3,7 C 14,2 C 6,2 km/h (2 Bft)
24/01/2008 15:00 14,0 C 50 % 1027,9 hPa 0,0 l/m 2,3 km/h (1 Bft) E-SE 1,00 h 0,203 mm 241 W/m 3,7 C 14,0 C 4,5 km/h (1 Bft)
24/01/2008 16:00 12,4 C 57 % 1028,1 hPa 0,0 l/m 4,2 km/h (1 Bft) S-SE 0,95 h 0,152 mm 106 W/m 4,2 C 12,4 C 6,2 km/h (2 Bft)
24/01/2008 17:00 10,1 C 71 % 1028,6 hPa 0,0 l/m 5,1 km/h (1 Bft) S 0,03 h 0,076 mm 17 W/m 5,1 C 9,9 C 6,5 km/h (2 Bft)
24/01/2008 18:00 8,9 C 76 % 1028,9 hPa 0,0 l/m 2,1 km/h (1 Bft) S-SO 0,00 h 0,025 mm 0 W/m 4,9 C 8,9 C 3,3 km/h (1 Bft)
24/01/2008 19:00 8,0 C 77 % 1029,1 hPa 0,0 l/m 0,9 km/h (0 Bft) O-SO 0,00 h 0,025 mm 0 W/m 4,2 C 8,0 C 2,3 km/h (1 Bft)
24/01/2008 20:00 7,5 C 77 % 1029,3 hPa 0,0 l/m 3,1 km/h (1 Bft) O-SO 0,00 h 0,025 mm 0 W/m 3,8 C 7,4 C 5,0 km/h (1 Bft)
24/01/2008 21:00 7,1 C 74 % 1029,0 hPa 0,0 l/m 3,8 km/h (1 Bft) NO 0,00 h 0,025 mm 0 W/m 2,8 C 6,8 C 5,5 km/h (1 Bft)
24/01/2008 22:00 6,7 C 72 % 1029,0 hPa 0,0 l/m 3,6 km/h (1 Bft) NO 0,00 h 0,025 mm 0 W/m 2,1 C 6,5 C 5,6 km/h (1 Bft)
24/01/2008 23:00 7,1 C 70 % 1028,8 hPa 0,0 l/m 4,0 km/h (1 Bft) NO 0,00 h 0,025 mm 0 W/m 2,0 C 6,8 C 5,3 km/h (1 Bft)
25/01/2008 00:00 6,6 C 67 % 1028,6 hPa 0,0 l/m 4,0 km/h (1 Bft) NO 0,00 h 0,025 mm 0 W/m 1,0 C 6,2 C 5,4 km/h (1 Bft)
25/01/2008 01:00 6,7 C 68 % 1028,4 hPa 0,0 l/m 3,8 km/h (1 Bft) NO 0,00 h 0,025 mm 0 W/m 1,1 C 6,4 C 5,3 km/h (1 Bft)
25/01/2008 02:00 6,4 C 66 % 1028,2 hPa 0,0 l/m 2,6 km/h (1 Bft) NO 0,00 h 0,025 mm 0 W/m 0,4 C 6,3 C 4,2 km/h (1 Bft)
25/01/2008 03:00 6,2 C 67 % 1028,1 hPa 0,0 l/m 3,2 km/h (1 Bft) NO 0,00 h 0,025 mm 0 W/m 0,5 C 6,1 C 4,7 km/h (1 Bft)
25/01/2008 04:00 6,0 C 69 % 1028,0 hPa 0,0 l/m 3,7 km/h (1 Bft) NO 0,00 h 0,025 mm 0 W/m 0,7 C 5,6 C 5,3 km/h (1 Bft)
25/01/2008 05:00 6,0 C 69 % 1028,1 hPa 0,0 l/m 3,8 km/h (1 Bft) NO 0,00 h 0,025 mm 0 W/m 0,7 C 5,6 C 5,6 km/h (1 Bft)
25/01/2008 06:00 6,0 C 66 % 1028,4 hPa 0,0 l/m 3,8 km/h (1 Bft) N 0,00 h 0,025 mm 0 W/m 0,2 C 5,7 C 5,6 km/h (1 Bft)
25/01/2008 07:00 6,2 C 66 % 1028,6 hPa 0,0 l/m 4,3 km/h (1 Bft) N-NE 0,00 h 0,025 mm 9 W/m 0,3 C 5,7 C 6,9 km/h (2 Bft)
25/01/2008 08:00 6,7 C 64 % 1029,0 hPa 0,0 l/m 3,9 km/h (1 Bft) N 0,05 h 0,025 mm 34 W/m 0,5 C 6,3 C 6,3 km/h (2 Bft)
25/01/2008 09:00 8,0 C 66 % 1029,6 hPa 0,0 l/m 2,9 km/h (1 Bft) N 0,03 h 0,025 mm 90 W/m 2,0 C 7,9 C 5,2 km/h (1 Bft)
25/01/2008 10:00 11,1 C 68 % 1030,1 hPa 0,0 l/m 6,0 km/h (2 Bft) NE 0,98 h 0,051 mm 341 W/m 5,3 C 11,1 C 9,5 km/h (2 Bft)
25/01/2008 11:00 11,5 C 76 % 1030,6 hPa 0,0 l/m 6,3 km/h (2 Bft) NE 0,37 h 0,178 mm 253 W/m 7,4 C 11,5 C 8,9 km/h (2 Bft)
25/01/2008 12:00 13,1 C 70 % 1030,5 hPa 0,0 l/m 7,4 km/h (2 Bft) E-NE 0,90 h 0,152 mm 430 W/m 7,7 C 13,1 C 10,8 km/h (2 Bft)
25/01/2008 13:00 13,2 C 68 % 1030,3 hPa 0,0 l/m 5,7 km/h (1 Bft) E 0,75 h 0,254 mm 332 W/m 7,5 C 13,2 C 8,7 km/h (2 Bft)
25/01/2008 14:00 12,7 C 73 % 1030,0 hPa 0,0 l/m 3,1 km/h (1 Bft) E-SE 0,32 h 0,178 mm 223 W/m 8,0 C 12,7 C 6,1 km/h (2 Bft)
25/01/2008 15:00 11,6 C 82 % 1030,4 hPa 0,0 l/m 3,9 km/h (1 Bft) E 0,00 h 0,127 mm 126 W/m 8,6 C 11,6 C 6,5 km/h (2 Bft)
25/01/2008 16:00 11,2 C 85 % 1030,9 hPa 0,0 l/m 3,7 km/h (1 Bft) E 0,28 h 0,076 mm 76 W/m 8,9 C 11,2 C 5,6 km/h (1 Bft)
25/01/2008 17:00 10,2 C 87 % 1031,5 hPa 0,0 l/m 1,8 km/h (1 Bft) E-NE 0,00 h 0,051 mm 14 W/m 8,1 C 10,2 C 2,7 km/h (1 Bft)
25/01/2008 18:00 9,5 C 88 % 1031,8 hPa 0,0 l/m 0,1 km/h (0 Bft) E-NE 0,00 h 0,000 mm 0 W/m 7,6 C 9,5 C 0,3 km/h (0 Bft)
25/01/2008 19:00 9,0 C 89 % 1032,5 hPa 0,0 l/m 2,7 km/h (1 Bft) O-NO 0,00 h 0,025 mm 0 W/m 7,3 C 8,8 C 3,8 km/h (1 Bft)
25/01/2008 20:00 8,3 C 91 % 1032,6 hPa 0,0 l/m 4,1 km/h (1 Bft) O-NO 0,00 h 0,025 mm 0 W/m 6,9 C 8,0 C 5,7 km/h (1 Bft)
25/01/2008 21:00 7,3 C 90 % 1032,9 hPa 0,0 l/m 5,2 km/h (1 Bft) O-NO 0,00 h 0,025 mm 0 W/m 5,7 C 6,6 C 7,1 km/h (2 Bft)
25/01/2008 22:00 7,5 C 77 % 1032,9 hPa 0,0 l/m 6,6 km/h (2 Bft) O 0,00 h 0,025 mm 0 W/m 3,7 C 6,5 C 8,9 km/h (2 Bft)
25/01/2008 23:00 8,4 C 64 % 1032,8 hPa 0,0 l/m 4,9 km/h (1 Bft) NO 0,00 h 0,025 mm 0 W/m 2,1 C 7,9 C 6,9 km/h (2 Bft)
26/01/2008 00:00 9,2 C 58 % 1032,6 hPa 0,0 l/m 6,8 km/h (2 Bft) NO 0,00 h 0,051 mm 0 W/m 1,3 C 8,4 C 9,8 km/h (2 Bft)
26/01/2008 01:00 9,5 C 53 % 1032,2 hPa 0,0 l/m 10,6 km/h (2 Bft) O-NO 0,00 h 0,051 mm 0 W/m 0,4 C 8,0 C 14,7 km/h (3 Bft)
26/01/2008 02:00 9,5 C 51 % 1032,1 hPa 0,0 l/m 9,2 km/h (2 Bft) O-NO 0,00 h 0,076 mm 0 W/m -0,2 C 8,3 C 12,8 km/h (3 Bft)
26/01/2008 03:00 9,5 C 50 % 1032,1 hPa 0,0 l/m 2,4 km/h (1 Bft) NO 0,00 h 0,076 mm 0 W/m -0,5 C 9,3 C 3,5 km/h (1 Bft)
26/01/2008 04:00 9,9 C 48 % 1031,9 hPa 0,0 l/m 5,0 km/h (1 Bft) O 0,00 h 0,051 mm 0 W/m -0,7 C 9,6 C 6,8 km/h (2 Bft)
26/01/2008 05:00 9,6 C 47 % 1031,8 hPa 0,0 l/m 4,9 km/h (1 Bft) NO 0,00 h 0,051 mm 0 W/m -1,1 C 9,2 C 7,4 km/h (2 Bft)
26/01/2008 06:00 9,8 C 45 % 1031,9 hPa 0,0 l/m 4,1 km/h (1 Bft) NO 0,00 h 0,051 mm 0 W/m -1,7 C 9,6 C 5,6 km/h (1 Bft)
26/01/2008 07:00 10,1 C 43 % 1032,2 hPa 0,0 l/m 4,4 km/h (1 Bft) O 0,00 h 0,051 mm 7 W/m -2,1 C 10,0 C 5,8 km/h (2 Bft)
26/01/2008 08:00 10,8 C 41 % 1032,4 hPa 0,0 l/m 3,5 km/h (1 Bft) O 0,90 h 0,051 mm 65 W/m -1,9 C 10,7 C 5,0 km/h (1 Bft)
26/01/2008 09:00 13,0 C 38 % 1032,8 hPa 0,0 l/m 1,5 km/h (1 Bft) O 1,00 h 0,051 mm 204 W/m -1,1 C 13,0 C 2,7 km/h (1 Bft)
26/01/2008 10:00 15,4 C 39 % 1032,9 hPa 0,0 l/m 0,6 km/h (0 Bft) E 1,00 h 0,127 mm 332 W/m 1,4 C 15,4 C 1,2 km/h (1 Bft)
26/01/2008 11:00 15,9 C 37 % 1033,0 hPa 0,0 l/m 1,9 km/h (1 Bft) E 1,00 h 0,178 mm 421 W/m 1,4 C 15,9 C 3,6 km/h (1 Bft)
26/01/2008 12:00 17,0 C 35 % 1032,3 hPa 0,0 l/m 3,6 km/h (1 Bft) S-SE 1,00 h 0,254 mm 457 W/m 1,6 C 17,0 C 6,3 km/h (2 Bft)
26/01/2008 13:00 17,0 C 40 % 1031,5 hPa 0,0 l/m 7,0 km/h (2 Bft) S-SE 1,00 h 0,279 mm 436 W/m 3,4 C 17,0 C 10,4 km/h (2 Bft)
26/01/2008 14:00 17,5 C 37 % 1031,0 hPa 0,0 l/m 9,9 km/h (2 Bft) S-SO 1,00 h 0,305 mm 375 W/m 2,8 C 17,5 C 14,1 km/h (3 Bft)
26/01/2008 15:00 16,2 C 38 % 1031,2 hPa 0,0 l/m 14,5 km/h (3 Bft) S-SO 1,00 h 0,305 mm 263 W/m 1,8 C 16,2 C 18,3 km/h (3 Bft)
26/01/2008 16:00 14,6 C 43 % 1031,6 hPa 0,0 l/m 11,2 km/h (2 Bft) S-SO 1,00 h 0,254 mm 124 W/m 2,0 C 14,6 C 14,9 km/h (3 Bft)
26/01/2008 17:00 12,6 C 48 % 1031,9 hPa 0,0 l/m 1,1 km/h (1 Bft) S-SO 0,32 h 0,152 mm 20 W/m 1,9 C 12,6 C 2,1 km/h (1 Bft)
26/01/2008 18:00 10,5 C 54 % 1032,1 hPa 0,0 l/m 0,7 km/h (0 Bft) SO 0,00 h 0,025 mm 0 W/m 1,7 C 10,5 C 1,6 km/h (1 Bft)
26/01/2008 19:00 10,5 C 55 % 1032,3 hPa 0,0 l/m 3,2 km/h (1 Bft) SO 0,00 h 0,025 mm 0 W/m 1,9 C 10,5 C 4,1 km/h (1 Bft)
26/01/2008 20:00 9,8 C 54 % 1032,2 hPa 0,0 l/m 3,8 km/h (1 Bft) O-SO 0,00 h 0,051 mm 0 W/m 1,0 C 9,7 C 5,6 km/h (1 Bft)
26/01/2008 21:00 9,6 C 51 % 1031,6 hPa 0,0 l/m 4,6 km/h (1 Bft) N-NO 0,00 h 0,051 mm 0 W/m 0,1 C 9,4 C 6,4 km/h (2 Bft)
26/01/2008 22:00 9,8 C 50 % 1031,6 hPa 0,0 l/m 3,3 km/h (1 Bft) N-NO 0,00 h 0,051 mm 0 W/m -0,2 C 9,7 C 4,6 km/h (1 Bft)
26/01/2008 23:00 10,1 C 43 % 1031,5 hPa 0,0 l/m 4,7 km/h (1 Bft) O-NO 0,00 h 0,051 mm 0 W/m -2,0 C 10,0 C 6,1 km/h (2 Bft)
27/01/2008 00:00 9,9 C 43 % 1031,2 hPa 0,0 l/m 2,2 km/h (1 Bft) O-NO 0,00 h 0,051 mm 0 W/m -2,2 C 9,9 C 3,5 km/h (1 Bft)
27/01/2008 01:00 10,0 C 38 % 1030,3 hPa 0,0 l/m 3,2 km/h (1 Bft) O-NO 0,00 h 0,051 mm 0 W/m -3,6 C 10,0 C 4,7 km/h (1 Bft)
27/01/2008 02:00 9,3 C 37 % 1029,9 hPa 0,0 l/m 3,3 km/h (1 Bft) O-NO 0,00 h 0,051 mm 0 W/m -4,6 C 9,1 C 4,6 km/h (1 Bft)
27/01/2008 03:00 9,9 C 34 % 1029,3 hPa 0,0 l/m 0,8 km/h (0 Bft) O-NO 0,00 h 0,051 mm 0 W/m -5,3 C 9,9 C 1,7 km/h (1 Bft)
27/01/2008 04:00 9,8 C 31 % 1028,7 hPa 0,0 l/m 1,1 km/h (1 Bft) O-NO 0,00 h 0,051 mm 0 W/m -6,6 C 9,8 C 1,8 km/h (1 Bft)
27/01/2008 05:00 9,7 C 31 % 1028,4 hPa 0,0 l/m 2,9 km/h (1 Bft) O-NO 0,00 h 0,051 mm 0 W/m -6,8 C 9,6 C 3,9 km/h (1 Bft)
27/01/2008 06:00 10,1 C 30 % 1027,9 hPa 0,0 l/m 4,3 km/h (1 Bft) O-NO 0,00 h 0,076 mm 0 W/m -6,7 C 10,1 C 5,4 km/h (1 Bft)
27/01/2008 07:00 9,2 C 31 % 1027,6 hPa 0,0 l/m 1,6 km/h (1 Bft) SO 0,00 h 0,076 mm 5 W/m -7,1 C 9,2 C 2,2 km/h (1 Bft)
27/01/2008 08:00 8,6 C 32 % 1027,3 hPa 0,0 l/m 0,9 km/h (0 Bft) SO 0,05 h 0,025 mm 44 W/m -7,2 C 8,6 C 1,7 km/h (1 Bft)
27/01/2008 09:00 8,5 C 40 % 1027,4 hPa 0,0 l/m 1,9 km/h (1 Bft) SO 0,48 h 0,025 mm 137 W/m -4,4 C 8,4 C 2,9 km/h (1 Bft)
27/01/2008 10:00 10,4 C 40 % 1027,4 hPa 0,0 l/m 2,2 km/h (1 Bft) S-SO 1,00 h 0,076 mm 266 W/m -2,9 C 10,4 C 4,0 km/h (1 Bft)
27/01/2008 11:00 12,2 C 44 % 1027,2 hPa 0,0 l/m 4,9 km/h (1 Bft) E 1,00 h 0,152 mm 432 W/m 0,1 C 12,2 C 7,9 km/h (2 Bft)
27/01/2008 12:00 12,9 C 69 % 1026,5 hPa 0,0 l/m 4,1 km/h (1 Bft) E 1,00 h 0,254 mm 430 W/m 7,3 C 12,9 C 7,7 km/h (2 Bft)
27/01/2008 13:00 12,8 C 73 % 1025,3 hPa 0,0 l/m 4,2 km/h (1 Bft) SE 1,00 h 0,229 mm 367 W/m 8,1 C 12,8 C 7,1 km/h (2 Bft)
27/01/2008 14:00 12,8 C 76 % 1024,3 hPa 0,0 l/m 3,7 km/h (1 Bft) E-SE 1,00 h 0,203 mm 289 W/m 8,6 C 12,8 C 7,1 km/h (2 Bft)
27/01/2008 15:00 12,8 C 80 % 1023,9 hPa 0,0 l/m 5,4 km/h (1 Bft) E-NE 0,88 h 0,152 mm 224 W/m 9,4 C 12,8 C 7,9 km/h (2 Bft)
27/01/2008 16:00 11,4 C 85 % 1023,8 hPa 0,0 l/m 3,2 km/h (1 Bft) E-NE 0,00 h 0,127 mm 50 W/m 9,0 C 11,4 C 4,8 km/h (1 Bft)
27/01/2008 17:00 10,5 C 89 % 1024,0 hPa 0,0 l/m 0,2 km/h (0 Bft) E-NE 0,00 h 0,025 mm 13 W/m 8,8 C 10,5 C 0,8 km/h (0 Bft)
27/01/2008 18:00 10,3 C 89 % 1024,2 hPa 0,0 l/m 0,1 km/h (0 Bft) E-NE 0,00 h 0,000 mm 0 W/m 8,6 C 10,3 C 0,2 km/h (0 Bft)
27/01/2008 19:00 10,1 C 89 % 1024,3 hPa 0,0 l/m 1,5 km/h (1 Bft) E-NE 0,00 h 0,000 mm 0 W/m 8,5 C 10,1 C 2,4 km/h (1 Bft)
27/01/2008 20:00 9,7 C 90 % 1024,3 hPa 0,0 l/m 3,8 km/h (1 Bft) O-NO 0,00 h 0,025 mm 0 W/m 8,1 C 9,5 C 5,5 km/h (1 Bft)
27/01/2008 21:00 9,1 C 91 % 1024,2 hPa 0,0 l/m 5,3 km/h (1 Bft) O-NO 0,00 h 0,025 mm 0 W/m 7,6 C 8,6 C 7,3 km/h (2 Bft)
27/01/2008 22:00 8,8 C 92 % 1023,8 hPa 0,0 l/m 5,0 km/h (1 Bft) O-NO 0,00 h 0,025 mm 0 W/m 7,5 C 8,4 C 6,9 km/h (2 Bft)
27/01/2008 23:00 8,9 C 93 % 1023,3 hPa 0,0 l/m 6,0 km/h (2 Bft) O 0,00 h 0,025 mm 0 W/m 7,8 C 8,2 C 7,8 km/h (2 Bft)
Min-Date _ 24/01/08 23/01/08 22/01/08 - 21/01/08 - - - - 27/01/08 22/01/08 21/01/08
_ Min-Heure 02:28 13:17 14:45 - 00:06 - - - - 07:42 07:00 02:11
Minimum _ 5,0 C 25 % 1008,7 hPa - 0,0 km/h (0 Bft) - - - - -7,7 C 2,2 C 0,0 km/h (0 Bft)
Max-Date _ 22/01/08 22/01/08 26/01/08 21/01/08 22/01/08 - 21/01/08 22/01/08 25/01/08 27/01/08 22/01/08 22/01/08
_ Max-Heure 12:10 07:58 10:45 00:00 12:43 - 11:44 13:00 13:10 15:37 12:10 12:36
Maximum _ 19,2 C 94 % 1033,2 hPa 0,0 l/m 33,8 km/h
SO (5 Bft)
- 0,02 h 0,432 mm 592 W/m 9,7 C 19,2 C 45,1 km/h
SO (6 Bft)
Moyenne _ 9,8 C 64 % 1025,5 hPa #0,0 l/m 4,5 km/h (1 Bft) O-NO #48:55 h #13,798 mm 214 W/m 2,6 C 9,5 C 6,7 km/h (2 Bft)
Roquefort les pins